sensor_id;sensor_type;location;lat;lon;timestamp;P1;durP1;ratioP1;P2;durP2;ratioP2
68886;SDS011;55925;51.764;6.402;2023-11-22T00:00:05;20.05;;;8.98;;
68886;SDS011;55925;51.764;6.402;2023-11-22T00:02:32;20.90;;;8.90;;
68886;SDS011;55925;51.764;6.402;2023-11-22T00:04:58;18.70;;;7.93;;
68886;SDS011;55925;51.764;6.402;2023-11-22T00:07:24;19.98;;;8.57;;
68886;SDS011;55925;51.764;6.402;2023-11-22T00:09:50;21.45;;;9.15;;
68886;SDS011;55925;51.764;6.402;2023-11-22T00:12:17;21.65;;;8.00;;
68886;SDS011;55925;51.764;6.402;2023-11-22T00:14:43;17.88;;;8.02;;
68886;SDS011;55925;51.764;6.402;2023-11-22T00:17:09;20.45;;;8.55;;
68886;SDS011;55925;51.764;6.402;2023-11-22T00:19:35;19.88;;;8.27;;
68886;SDS011;55925;51.764;6.402;2023-11-22T00:22:01;19.33;;;7.68;;
68886;SDS011;55925;51.764;6.402;2023-11-22T00:24:36;18.65;;;9.02;;
68886;SDS011;55925;51.764;6.402;2023-11-22T00:27:02;23.88;;;9.80;;
68886;SDS011;55925;51.764;6.402;2023-11-22T00:29:28;21.48;;;9.10;;
68886;SDS011;55925;51.764;6.402;2023-11-22T00:31:54;22.73;;;9.40;;
68886;SDS011;55925;51.764;6.402;2023-11-22T00:34:21;23.48;;;8.02;;
68886;SDS011;55925;51.764;6.402;2023-11-22T00:36:48;20.52;;;9.50;;
68886;SDS011;55925;51.764;6.402;2023-11-22T00:39:15;19.10;;;8.23;;
68886;SDS011;55925;51.764;6.402;2023-11-22T00:41:41;21.95;;;9.55;;
68886;SDS011;55925;51.764;6.402;2023-11-22T00:44:09;16.35;;;7.00;;
68886;SDS011;55925;51.764;6.402;2023-11-22T00:46:35;24.40;;;9.70;;
68886;SDS011;55925;51.764;6.402;2023-11-22T00:49:02;19.20;;;7.85;;
68886;SDS011;55925;51.764;6.402;2023-11-22T00:51:29;22.70;;;9.30;;
68886;SDS011;55925;51.764;6.402;2023-11-22T00:53:56;20.17;;;8.68;;
68886;SDS011;55925;51.764;6.402;2023-11-22T00:56:22;20.35;;;9.65;;
68886;SDS011;55925;51.764;6.402;2023-11-22T00:58:48;23.10;;;10.10;;
68886;SDS011;55925;51.764;6.402;2023-11-22T01:01:15;24.80;;;9.63;;
68886;SDS011;55925;51.764;6.402;2023-11-22T01:03:41;22.38;;;8.52;;
68886;SDS011;55925;51.764;6.402;2023-11-22T01:06:07;21.75;;;8.55;;
68886;SDS011;55925;51.764;6.402;2023-11-22T01:08:34;24.85;;;9.73;;
68886;SDS011;55925;51.764;6.402;2023-11-22T01:11:02;23.27;;;9.80;;
68886;SDS011;55925;51.764;6.402;2023-11-22T01:13:28;22.00;;;8.82;;
68886;SDS011;55925;51.764;6.402;2023-11-22T01:15:54;20.80;;;9.75;;
68886;SDS011;55925;51.764;6.402;2023-11-22T01:18:20;17.63;;;7.72;;
68886;SDS011;55925;51.764;6.402;2023-11-22T01:20:46;20.95;;;9.05;;
68886;SDS011;55925;51.764;6.402;2023-11-22T01:23:13;24.05;;;9.63;;
68886;SDS011;55925;51.764;6.402;2023-11-22T01:25:39;22.58;;;10.05;;
68886;SDS011;55925;51.764;6.402;2023-11-22T01:28:05;21.65;;;10.35;;
68886;SDS011;55925;51.764;6.402;2023-11-22T01:30:32;20.52;;;8.55;;
68886;SDS011;55925;51.764;6.402;2023-11-22T01:32:58;24.85;;;9.35;;
68886;SDS011;55925;51.764;6.402;2023-11-22T01:35:24;21.52;;;8.82;;
68886;SDS011;55925;51.764;6.402;2023-11-22T01:37:50;24.15;;;9.45;;
68886;SDS011;55925;51.764;6.402;2023-11-22T01:40:17;18.98;;;8.30;;
68886;SDS011;55925;51.764;6.402;2023-11-22T01:42:44;24.27;;;9.10;;
68886;SDS011;55925;51.764;6.402;2023-11-22T01:45:12;24.27;;;10.07;;
68886;SDS011;55925;51.764;6.402;2023-11-22T01:47:38;23.85;;;8.98;;
68886;SDS011;55925;51.764;6.402;2023-11-22T01:50:06;25.55;;;8.95;;
68886;SDS011;55925;51.764;6.402;2023-11-22T01:52:33;19.83;;;8.80;;
68886;SDS011;55925;51.764;6.402;2023-11-22T01:55:00;22.55;;;9.63;;
68886;SDS011;55925;51.764;6.402;2023-11-22T01:57:26;23.35;;;9.32;;
68886;SDS011;55925;51.764;6.402;2023-11-22T01:59:52;24.48;;;9.73;;
68886;SDS011;55925;51.764;6.402;2023-11-22T02:02:18;25.60;;;10.27;;
68886;SDS011;55925;51.764;6.402;2023-11-22T02:04:45;22.33;;;9.18;;
68886;SDS011;55925;51.764;6.402;2023-11-22T02:07:11;20.20;;;9.38;;
68886;SDS011;55925;51.764;6.402;2023-11-22T02:09:37;23.80;;;10.02;;
68886;SDS011;55925;51.764;6.402;2023-11-22T02:12:03;23.38;;;8.35;;
68886;SDS011;55925;51.764;6.402;2023-11-22T02:14:29;22.67;;;8.23;;
68886;SDS011;55925;51.764;6.402;2023-11-22T02:16:55;22.58;;;9.98;;
68886;SDS011;55925;51.764;6.402;2023-11-22T02:19:21;18.40;;;8.65;;
68886;SDS011;55925;51.764;6.402;2023-11-22T02:21:47;20.48;;;10.88;;
68886;SDS011;55925;51.764;6.402;2023-11-22T02:24:13;20.65;;;9.50;;
68886;SDS011;55925;51.764;6.402;2023-11-22T02:26:43;26.55;;;10.75;;
68886;SDS011;55925;51.764;6.402;2023-11-22T02:29:09;20.88;;;8.50;;
68886;SDS011;55925;51.764;6.402;2023-11-22T02:31:35;21.67;;;8.45;;
68886;SDS011;55925;51.764;6.402;2023-11-22T02:34:01;20.50;;;9.05;;
68886;SDS011;55925;51.764;6.402;2023-11-22T02:36:27;25.60;;;9.45;;
68886;SDS011;55925;51.764;6.402;2023-11-22T02:38:53;21.73;;;8.07;;
68886;SDS011;55925;51.764;6.402;2023-11-22T02:41:19;24.48;;;9.82;;
68886;SDS011;55925;51.764;6.402;2023-11-22T02:43:45;21.75;;;8.98;;
68886;SDS011;55925;51.764;6.402;2023-11-22T02:46:11;23.63;;;8.68;;
68886;SDS011;55925;51.764;6.402;2023-11-22T02:48:37;23.27;;;8.93;;
68886;SDS011;55925;51.764;6.402;2023-11-22T02:51:04;23.42;;;9.10;;
68886;SDS011;55925;51.764;6.402;2023-11-22T02:53:31;20.95;;;8.00;;
68886;SDS011;55925;51.764;6.402;2023-11-22T02:56:01;22.50;;;9.32;;
68886;SDS011;55925;51.764;6.402;2023-11-22T02:58:29;20.05;;;9.25;;
68886;SDS011;55925;51.764;6.402;2023-11-22T03:00:55;21.38;;;8.50;;
68886;SDS011;55925;51.764;6.402;2023-11-22T03:03:22;24.98;;;10.77;;
68886;SDS011;55925;51.764;6.402;2023-11-22T03:05:49;19.55;;;8.15;;
68886;SDS011;55925;51.764;6.402;2023-11-22T03:08:18;19.25;;;8.75;;
68886;SDS011;55925;51.764;6.402;2023-11-22T03:10:44;19.17;;;8.23;;
68886;SDS011;55925;51.764;6.402;2023-11-22T03:13:10;21.42;;;7.88;;
68886;SDS011;55925;51.764;6.402;2023-11-22T03:15:36;17.83;;;7.45;;
68886;SDS011;55925;51.764;6.402;2023-11-22T03:18:02;21.75;;;8.73;;
68886;SDS011;55925;51.764;6.402;2023-11-22T03:20:31;19.38;;;9.02;;
68886;SDS011;55925;51.764;6.402;2023-11-22T03:22:57;19.80;;;9.00;;
68886;SDS011;55925;51.764;6.402;2023-11-22T03:25:23;21.45;;;9.57;;
68886;SDS011;55925;51.764;6.402;2023-11-22T03:27:49;20.25;;;8.35;;
68886;SDS011;55925;51.764;6.402;2023-11-22T03:30:16;15.40;;;7.70;;
68886;SDS011;55925;51.764;6.402;2023-11-22T03:32:42;20.83;;;8.07;;
68886;SDS011;55925;51.764;6.402;2023-11-22T03:35:09;19.33;;;8.70;;
68886;SDS011;55925;51.764;6.402;2023-11-22T03:37:35;17.77;;;7.57;;
68886;SDS011;55925;51.764;6.402;2023-11-22T03:40:02;21.33;;;8.70;;
68886;SDS011;55925;51.764;6.402;2023-11-22T03:42:28;17.38;;;7.90;;
68886;SDS011;55925;51.764;6.402;2023-11-22T03:44:54;19.80;;;7.72;;
68886;SDS011;55925;51.764;6.402;2023-11-22T03:47:20;21.67;;;8.27;;
68886;SDS011;55925;51.764;6.402;2023-11-22T03:49:47;17.40;;;7.80;;
68886;SDS011;55925;51.764;6.402;2023-11-22T03:52:13;24.20;;;8.57;;
68886;SDS011;55925;51.764;6.402;2023-11-22T03:54:39;17.27;;;7.18;;
68886;SDS011;55925;51.764;6.402;2023-11-22T03:57:05;20.70;;;7.85;;
68886;SDS011;55925;51.764;6.402;2023-11-22T03:59:34;17.08;;;7.57;;
68886;SDS011;55925;51.764;6.402;2023-11-22T04:02:00;15.43;;;7.35;;
68886;SDS011;55925;51.764;6.402;2023-11-22T04:04:26;17.23;;;7.25;;
68886;SDS011;55925;51.764;6.402;2023-11-22T04:06:52;19.65;;;8.02;;
68886;SDS011;55925;51.764;6.402;2023-11-22T04:09:19;18.83;;;7.85;;
68886;SDS011;55925;51.764;6.402;2023-11-22T04:11:45;18.55;;;7.35;;
68886;SDS011;55925;51.764;6.402;2023-11-22T04:14:12;22.70;;;7.30;;
68886;SDS011;55925;51.764;6.402;2023-11-22T04:16:38;19.17;;;8.27;;
68886;SDS011;55925;51.764;6.402;2023-11-22T04:19:04;19.10;;;6.93;;
68886;SDS011;55925;51.764;6.402;2023-11-22T04:21:30;17.00;;;7.88;;
68886;SDS011;55925;51.764;6.402;2023-11-22T04:23:56;19.00;;;6.75;;
68886;SDS011;55925;51.764;6.402;2023-11-22T04:26:23;18.92;;;8.40;;
68886;SDS011;55925;51.764;6.402;2023-11-22T04:28:49;19.35;;;7.90;;
68886;SDS011;55925;51.764;6.402;2023-11-22T04:31:16;18.50;;;7.68;;
68886;SDS011;55925;51.764;6.402;2023-11-22T04:33:42;16.77;;;7.70;;
68886;SDS011;55925;51.764;6.402;2023-11-22T04:36:08;18.60;;;7.72;;
68886;SDS011;55925;51.764;6.402;2023-11-22T04:38:34;18.23;;;7.43;;
68886;SDS011;55925;51.764;6.402;2023-11-22T04:41:00;16.83;;;7.90;;
68886;SDS011;55925;51.764;6.402;2023-11-22T04:43:26;19.80;;;7.65;;
68886;SDS011;55925;51.764;6.402;2023-11-22T04:45:52;17.83;;;7.03;;
68886;SDS011;55925;51.764;6.402;2023-11-22T04:48:18;15.13;;;7.10;;
68886;SDS011;55925;51.764;6.402;2023-11-22T04:50:44;15.60;;;7.05;;
68886;SDS011;55925;51.764;6.402;2023-11-22T04:53:10;16.13;;;6.70;;
68886;SDS011;55925;51.764;6.402;2023-11-22T04:55:36;16.50;;;7.18;;
68886;SDS011;55925;51.764;6.402;2023-11-22T04:58:02;18.85;;;7.65;;
68886;SDS011;55925;51.764;6.402;2023-11-22T05:00:28;18.08;;;7.00;;
68886;SDS011;55925;51.764;6.402;2023-11-22T05:02:54;18.08;;;7.47;;
68886;SDS011;55925;51.764;6.402;2023-11-22T05:05:21;18.25;;;7.20;;
68886;SDS011;55925;51.764;6.402;2023-11-22T05:07:47;15.52;;;6.13;;
68886;SDS011;55925;51.764;6.402;2023-11-22T05:10:13;19.23;;;7.95;;
68886;SDS011;55925;51.764;6.402;2023-11-22T05:12:39;17.52;;;7.80;;
68886;SDS011;55925;51.764;6.402;2023-11-22T05:15:06;16.45;;;7.05;;
68886;SDS011;55925;51.764;6.402;2023-11-22T05:17:32;19.88;;;7.68;;
68886;SDS011;55925;51.764;6.402;2023-11-22T05:19:59;18.08;;;7.93;;
68886;SDS011;55925;51.764;6.402;2023-11-22T05:22:25;16.42;;;6.68;;
68886;SDS011;55925;51.764;6.402;2023-11-22T05:24:50;16.45;;;7.38;;
68886;SDS011;55925;51.764;6.402;2023-11-22T05:27:17;14.68;;;7.20;;
68886;SDS011;55925;51.764;6.402;2023-11-22T05:29:43;19.67;;;8.15;;
68886;SDS011;55925;51.764;6.402;2023-11-22T05:32:09;19.35;;;7.28;;
68886;SDS011;55925;51.764;6.402;2023-11-22T05:34:36;17.30;;;6.63;;
68886;SDS011;55925;51.764;6.402;2023-11-22T05:37:04;19.52;;;7.55;;
68886;SDS011;55925;51.764;6.402;2023-11-22T05:39:30;15.23;;;7.63;;
68886;SDS011;55925;51.764;6.402;2023-11-22T05:41:57;14.70;;;6.78;;
68886;SDS011;55925;51.764;6.402;2023-11-22T05:44:23;16.30;;;6.90;;
68886;SDS011;55925;51.764;6.402;2023-11-22T05:46:50;18.10;;;7.50;;
68886;SDS011;55925;51.764;6.402;2023-11-22T05:49:16;17.30;;;7.25;;
68886;SDS011;55925;51.764;6.402;2023-11-22T05:51:42;18.65;;;7.72;;
68886;SDS011;55925;51.764;6.402;2023-11-22T05:54:08;17.60;;;7.25;;
68886;SDS011;55925;51.764;6.402;2023-11-22T05:56:37;16.83;;;6.13;;
68886;SDS011;55925;51.764;6.402;2023-11-22T05:59:03;17.92;;;7.00;;
68886;SDS011;55925;51.764;6.402;2023-11-22T06:01:29;18.35;;;6.65;;
68886;SDS011;55925;51.764;6.402;2023-11-22T06:03:55;14.88;;;6.70;;
68886;SDS011;55925;51.764;6.402;2023-11-22T06:06:21;18.05;;;6.75;;
68886;SDS011;55925;51.764;6.402;2023-11-22T06:08:48;21.38;;;7.57;;
68886;SDS011;55925;51.764;6.402;2023-11-22T06:11:14;18.42;;;7.70;;
68886;SDS011;55925;51.764;6.402;2023-11-22T06:13:41;18.02;;;7.97;;
68886;SDS011;55925;51.764;6.402;2023-11-22T06:16:12;23.58;;;9.30;;
68886;SDS011;55925;51.764;6.402;2023-11-22T06:18:38;27.38;;;10.93;;
68886;SDS011;55925;51.764;6.402;2023-11-22T06:21:05;35.80;;;9.77;;
68886;SDS011;55925;51.764;6.402;2023-11-22T06:23:31;20.27;;;9.32;;
68886;SDS011;55925;51.764;6.402;2023-11-22T06:25:57;23.05;;;9.60;;
68886;SDS011;55925;51.764;6.402;2023-11-22T06:28:24;19.52;;;8.98;;
68886;SDS011;55925;51.764;6.402;2023-11-22T06:30:50;24.50;;;10.23;;
68886;SDS011;55925;51.764;6.402;2023-11-22T06:33:16;19.55;;;10.38;;
68886;SDS011;55925;51.764;6.402;2023-11-22T06:35:42;20.88;;;9.15;;
68886;SDS011;55925;51.764;6.402;2023-11-22T06:38:08;22.77;;;10.80;;
68886;SDS011;55925;51.764;6.402;2023-11-22T06:40:34;22.25;;;9.73;;
68886;SDS011;55925;51.764;6.402;2023-11-22T06:43:00;21.83;;;8.23;;
68886;SDS011;55925;51.764;6.402;2023-11-22T06:45:29;18.33;;;8.45;;
68886;SDS011;55925;51.764;6.402;2023-11-22T06:47:56;22.85;;;8.02;;
68886;SDS011;55925;51.764;6.402;2023-11-22T06:50:23;17.80;;;7.05;;
68886;SDS011;55925;51.764;6.402;2023-11-22T06:52:49;19.00;;;7.35;;
68886;SDS011;55925;51.764;6.402;2023-11-22T06:55:17;19.63;;;7.72;;
68886;SDS011;55925;51.764;6.402;2023-11-22T06:57:43;19.45;;;7.57;;
68886;SDS011;55925;51.764;6.402;2023-11-22T07:00:09;22.70;;;8.55;;
68886;SDS011;55925;51.764;6.402;2023-11-22T07:02:36;25.83;;;8.82;;
68886;SDS011;55925;51.764;6.402;2023-11-22T07:05:02;23.15;;;8.25;;
68886;SDS011;55925;51.764;6.402;2023-11-22T07:07:28;18.33;;;7.82;;
68886;SDS011;55925;51.764;6.402;2023-11-22T07:09:55;25.35;;;8.70;;
68886;SDS011;55925;51.764;6.402;2023-11-22T07:12:24;18.15;;;7.47;;
68886;SDS011;55925;51.764;6.402;2023-11-22T07:14:51;18.67;;;7.68;;
68886;SDS011;55925;51.764;6.402;2023-11-22T07:17:17;13.82;;;7.85;;
68886;SDS011;55925;51.764;6.402;2023-11-22T07:19:43;18.17;;;7.40;;
68886;SDS011;55925;51.764;6.402;2023-11-22T07:22:13;19.83;;;7.03;;
68886;SDS011;55925;51.764;6.402;2023-11-22T07:24:44;16.70;;;7.70;;
68886;SDS011;55925;51.764;6.402;2023-11-22T07:27:11;16.90;;;6.85;;
68886;SDS011;55925;51.764;6.402;2023-11-22T07:29:39;18.17;;;7.60;;
68886;SDS011;55925;51.764;6.402;2023-11-22T07:32:05;16.90;;;8.10;;
68886;SDS011;55925;51.764;6.402;2023-11-22T07:34:33;16.33;;;7.35;;
68886;SDS011;55925;51.764;6.402;2023-11-22T07:36:59;17.35;;;8.40;;
68886;SDS011;55925;51.764;6.402;2023-11-22T07:39:25;18.88;;;8.18;;
68886;SDS011;55925;51.764;6.402;2023-11-22T07:41:55;20.75;;;8.55;;
68886;SDS011;55925;51.764;6.402;2023-11-22T07:44:21;19.02;;;8.65;;
68886;SDS011;55925;51.764;6.402;2023-11-22T07:46:48;17.77;;;7.40;;
68886;SDS011;55925;51.764;6.402;2023-11-22T07:49:15;20.95;;;9.80;;
68886;SDS011;55925;51.764;6.402;2023-11-22T07:51:40;19.42;;;8.57;;
68886;SDS011;55925;51.764;6.402;2023-11-22T07:54:07;19.45;;;8.63;;
68886;SDS011;55925;51.764;6.402;2023-11-22T07:56:33;17.95;;;8.95;;
68886;SDS011;55925;51.764;6.402;2023-11-22T07:58:59;17.33;;;7.75;;
68886;SDS011;55925;51.764;6.402;2023-11-22T08:01:26;24.35;;;8.50;;
68886;SDS011;55925;51.764;6.402;2023-11-22T08:03:54;19.15;;;8.77;;
68886;SDS011;55925;51.764;6.402;2023-11-22T08:06:21;20.23;;;7.90;;
68886;SDS011;55925;51.764;6.402;2023-11-22T08:08:47;17.45;;;7.18;;
68886;SDS011;55925;51.764;6.402;2023-11-22T08:11:13;19.23;;;7.60;;
68886;SDS011;55925;51.764;6.402;2023-11-22T08:13:43;20.92;;;8.77;;
68886;SDS011;55925;51.764;6.402;2023-11-22T08:16:10;19.95;;;8.52;;
68886;SDS011;55925;51.764;6.402;2023-11-22T08:18:39;20.42;;;9.48;;
68886;SDS011;55925;51.764;6.402;2023-11-22T08:21:08;18.75;;;8.43;;
68886;SDS011;55925;51.764;6.402;2023-11-22T08:23:34;19.13;;;8.35;;
68886;SDS011;55925;51.764;6.402;2023-11-22T08:26:00;21.15;;;8.48;;
68886;SDS011;55925;51.764;6.402;2023-11-22T08:28:26;17.70;;;8.90;;
68886;SDS011;55925;51.764;6.402;2023-11-22T08:30:54;19.00;;;7.75;;
68886;SDS011;55925;51.764;6.402;2023-11-22T08:33:20;21.63;;;9.38;;
68886;SDS011;55925;51.764;6.402;2023-11-22T08:35:47;25.63;;;14.13;;
68886;SDS011;55925;51.764;6.402;2023-11-22T08:38:16;18.73;;;9.65;;
68886;SDS011;55925;51.764;6.402;2023-11-22T08:40:42;21.65;;;9.48;;
68886;SDS011;55925;51.764;6.402;2023-11-22T08:43:08;17.35;;;8.20;;
68886;SDS011;55925;51.764;6.402;2023-11-22T08:45:34;20.15;;;8.60;;
68886;SDS011;55925;51.764;6.402;2023-11-22T08:48:00;23.45;;;9.07;;
68886;SDS011;55925;51.764;6.402;2023-11-22T08:50:26;18.02;;;8.02;;
68886;SDS011;55925;51.764;6.402;2023-11-22T08:52:52;20.88;;;8.68;;
68886;SDS011;55925;51.764;6.402;2023-11-22T08:55:19;22.30;;;9.35;;
68886;SDS011;55925;51.764;6.402;2023-11-22T08:57:49;18.50;;;8.73;;
68886;SDS011;55925;51.764;6.402;2023-11-22T09:00:19;17.90;;;8.13;;
68886;SDS011;55925;51.764;6.402;2023-11-22T09:02:47;20.25;;;8.18;;
68886;SDS011;55925;51.764;6.402;2023-11-22T09:05:14;18.05;;;6.95;;
68886;SDS011;55925;51.764;6.402;2023-11-22T09:07:42;14.02;;;7.40;;
68886;SDS011;55925;51.764;6.402;2023-11-22T09:10:09;17.20;;;7.50;;
68886;SDS011;55925;51.764;6.402;2023-11-22T09:12:38;15.98;;;6.18;;
68886;SDS011;55925;51.764;6.402;2023-11-22T09:15:10;16.80;;;7.05;;
68886;SDS011;55925;51.764;6.402;2023-11-22T09:17:38;18.50;;;7.00;;
68886;SDS011;55925;51.764;6.402;2023-11-22T09:20:08;14.45;;;8.10;;
68886;SDS011;55925;51.764;6.402;2023-11-22T09:22:36;15.73;;;7.25;;
68886;SDS011;55925;51.764;6.402;2023-11-22T09:25:04;19.08;;;9.52;;
68886;SDS011;55925;51.764;6.402;2023-11-22T09:27:34;17.67;;;8.57;;
68886;SDS011;55925;51.764;6.402;2023-11-22T09:30:02;18.38;;;7.97;;
68886;SDS011;55925;51.764;6.402;2023-11-22T09:32:28;13.80;;;6.60;;
68886;SDS011;55925;51.764;6.402;2023-11-22T09:34:54;18.55;;;7.85;;
68886;SDS011;55925;51.764;6.402;2023-11-22T09:37:23;16.80;;;6.68;;
68886;SDS011;55925;51.764;6.402;2023-11-22T09:39:50;13.35;;;6.93;;
68886;SDS011;55925;51.764;6.402;2023-11-22T09:42:16;19.73;;;7.40;;
68886;SDS011;55925;51.764;6.402;2023-11-22T09:44:42;18.48;;;7.65;;
68886;SDS011;55925;51.764;6.402;2023-11-22T09:47:08;15.05;;;6.43;;
68886;SDS011;55925;51.764;6.402;2023-11-22T09:49:35;14.25;;;6.22;;
68886;SDS011;55925;51.764;6.402;2023-11-22T09:52:05;21.02;;;10.75;;
68886;SDS011;55925;51.764;6.402;2023-11-22T09:54:37;17.27;;;10.15;;
68886;SDS011;55925;51.764;6.402;2023-11-22T09:57:05;12.23;;;5.80;;
68886;SDS011;55925;51.764;6.402;2023-11-22T09:59:33;12.98;;;6.53;;
68886;SDS011;55925;51.764;6.402;2023-11-22T10:02:00;11.20;;;5.38;;
68886;SDS011;55925;51.764;6.402;2023-11-22T10:04:27;14.68;;;5.40;;
68886;SDS011;55925;51.764;6.402;2023-11-22T10:06:56;14.52;;;6.35;;
68886;SDS011;55925;51.764;6.402;2023-11-22T10:09:24;11.57;;;5.60;;
68886;SDS011;55925;51.764;6.402;2023-11-22T10:11:50;10.98;;;4.88;;
68886;SDS011;55925;51.764;6.402;2023-11-22T10:14:22;11.63;;;5.70;;
68886;SDS011;55925;51.764;6.402;2023-11-22T10:17:00;11.77;;;5.95;;
68886;SDS011;55925;51.764;6.402;2023-11-22T10:19:27;17.75;;;6.00;;
68886;SDS011;55925;51.764;6.402;2023-11-22T10:22:02;13.02;;;5.45;;
68886;SDS011;55925;51.764;6.402;2023-11-22T10:24:33;11.68;;;5.55;;
68886;SDS011;55925;51.764;6.402;2023-11-22T10:26:59;12.90;;;5.28;;
68886;SDS011;55925;51.764;6.402;2023-11-22T10:29:25;13.13;;;6.07;;
68886;SDS011;55925;51.764;6.402;2023-11-22T10:31:52;11.88;;;4.93;;
68886;SDS011;55925;51.764;6.402;2023-11-22T10:34:21;16.60;;;6.20;;
68886;SDS011;55925;51.764;6.402;2023-11-22T10:36:48;11.40;;;5.78;;
68886;SDS011;55925;51.764;6.402;2023-11-22T10:39:18;23.80;;;14.07;;
68886;SDS011;55925;51.764;6.402;2023-11-22T10:41:45;12.02;;;6.47;;
68886;SDS011;55925;51.764;6.402;2023-11-22T10:44:11;13.85;;;5.97;;
68886;SDS011;55925;51.764;6.402;2023-11-22T10:46:38;12.27;;;5.82;;
68886;SDS011;55925;51.764;6.402;2023-11-22T10:49:05;12.75;;;6.35;;
68886;SDS011;55925;51.764;6.402;2023-11-22T10:51:31;11.52;;;5.63;;
68886;SDS011;55925;51.764;6.402;2023-11-22T10:53:58;12.23;;;5.70;;
68886;SDS011;55925;51.764;6.402;2023-11-22T10:56:26;13.25;;;5.72;;
68886;SDS011;55925;51.764;6.402;2023-11-22T10:58:56;14.63;;;7.15;;
68886;SDS011;55925;51.764;6.402;2023-11-22T11:01:25;10.85;;;5.78;;
68886;SDS011;55925;51.764;6.402;2023-11-22T11:04:08;22.52;;;13.25;;
68886;SDS011;55925;51.764;6.402;2023-11-22T11:06:36;11.20;;;4.60;;
68886;SDS011;55925;51.764;6.402;2023-11-22T11:09:03;11.68;;;5.80;;
68886;SDS011;55925;51.764;6.402;2023-11-22T11:11:36;10.07;;;4.85;;
68886;SDS011;55925;51.764;6.402;2023-11-22T11:14:04;10.00;;;4.70;;
68886;SDS011;55925;51.764;6.402;2023-11-22T11:16:31;10.50;;;5.15;;
68886;SDS011;55925;51.764;6.402;2023-11-22T11:18:59;10.80;;;4.90;;
68886;SDS011;55925;51.764;6.402;2023-11-22T11:21:25;9.98;;;4.85;;
68886;SDS011;55925;51.764;6.402;2023-11-22T11:23:51;12.75;;;4.85;;
68886;SDS011;55925;51.764;6.402;2023-11-22T11:26:20;9.15;;;4.60;;
68886;SDS011;55925;51.764;6.402;2023-11-22T11:28:51;9.65;;;4.75;;
68886;SDS011;55925;51.764;6.402;2023-11-22T11:31:21;10.43;;;4.68;;
68886;SDS011;55925;51.764;6.402;2023-11-22T11:36:21;13.25;;;5.75;;
68886;SDS011;55925;51.764;6.402;2023-11-22T11:38:48;8.77;;;4.18;;
68886;SDS011;55925;51.764;6.402;2023-11-22T11:41:17;9.45;;;4.43;;
68886;SDS011;55925;51.764;6.402;2023-11-22T11:43:43;10.50;;;4.90;;
68886;SDS011;55925;51.764;6.402;2023-11-22T11:46:10;9.73;;;4.90;;
68886;SDS011;55925;51.764;6.402;2023-11-22T11:48:37;12.35;;;5.18;;
68886;SDS011;55925;51.764;6.402;2023-11-22T11:51:03;9.85;;;4.68;;
68886;SDS011;55925;51.764;6.402;2023-11-22T11:53:31;9.82;;;5.10;;
68886;SDS011;55925;51.764;6.402;2023-11-22T11:55:58;11.77;;;4.53;;
68886;SDS011;55925;51.764;6.402;2023-11-22T11:58:24;9.20;;;4.22;;
68886;SDS011;55925;51.764;6.402;2023-11-22T12:00:50;10.07;;;4.18;;
68886;SDS011;55925;51.764;6.402;2023-11-22T12:03:17;10.10;;;4.68;;
68886;SDS011;55925;51.764;6.402;2023-11-22T12:05:46;10.65;;;4.57;;
68886;SDS011;55925;51.764;6.402;2023-11-22T12:08:13;9.15;;;4.93;;
68886;SDS011;55925;51.764;6.402;2023-11-22T12:10:40;10.57;;;3.70;;
68886;SDS011;55925;51.764;6.402;2023-11-22T12:13:06;11.68;;;3.75;;
68886;SDS011;55925;51.764;6.402;2023-11-22T12:15:33;7.18;;;4.10;;
68886;SDS011;55925;51.764;6.402;2023-11-22T12:17:59;8.65;;;3.75;;
68886;SDS011;55925;51.764;6.402;2023-11-22T12:20:26;7.55;;;3.55;;
68886;SDS011;55925;51.764;6.402;2023-11-22T12:22:57;6.53;;;3.53;;
68886;SDS011;55925;51.764;6.402;2023-11-22T12:25:25;8.60;;;3.45;;
68886;SDS011;55925;51.764;6.402;2023-11-22T12:27:53;9.43;;;3.60;;
68886;SDS011;55925;51.764;6.402;2023-11-22T12:30:29;8.30;;;4.03;;
68886;SDS011;55925;51.764;6.402;2023-11-22T12:32:56;7.93;;;3.63;;
68886;SDS011;55925;51.764;6.402;2023-11-22T12:35:22;8.82;;;4.13;;
68886;SDS011;55925;51.764;6.402;2023-11-22T12:37:49;9.43;;;4.38;;
68886;SDS011;55925;51.764;6.402;2023-11-22T12:40:15;8.88;;;4.10;;
68886;SDS011;55925;51.764;6.402;2023-11-22T12:42:51;9.85;;;4.13;;
68886;SDS011;55925;51.764;6.402;2023-11-22T12:45:21;9.43;;;4.20;;
68886;SDS011;55925;51.764;6.402;2023-11-22T12:47:49;7.90;;;3.95;;
68886;SDS011;55925;51.764;6.402;2023-11-22T12:50:34;9.55;;;3.72;;
68886;SDS011;55925;51.764;6.402;2023-11-22T12:53:13;8.25;;;3.72;;
68886;SDS011;55925;51.764;6.402;2023-11-22T12:55:46;8.40;;;3.67;;
68886;SDS011;55925;51.764;6.402;2023-11-22T12:58:14;7.90;;;4.00;;
68886;SDS011;55925;51.764;6.402;2023-11-22T13:00:41;6.13;;;2.85;;
68886;SDS011;55925;51.764;6.402;2023-11-22T13:03:07;6.95;;;3.00;;
68886;SDS011;55925;51.764;6.402;2023-11-22T13:05:35;7.22;;;3.03;;
68886;SDS011;55925;51.764;6.402;2023-11-22T13:08:01;7.25;;;3.15;;
68886;SDS011;55925;51.764;6.402;2023-11-22T13:10:28;6.25;;;2.85;;
68886;SDS011;55925;51.764;6.402;2023-11-22T13:12:55;7.72;;;3.03;;
68886;SDS011;55925;51.764;6.402;2023-11-22T13:15:21;8.98;;;3.40;;
68886;SDS011;55925;51.764;6.402;2023-11-22T13:17:55;7.85;;;2.78;;
68886;SDS011;55925;51.764;6.402;2023-11-22T13:20:22;6.97;;;3.00;;
68886;SDS011;55925;51.764;6.402;2023-11-22T13:22:48;7.00;;;3.25;;
68886;SDS011;55925;51.764;6.402;2023-11-22T13:25:14;7.53;;;3.30;;
68886;SDS011;55925;51.764;6.402;2023-11-22T13:27:42;9.77;;;4.22;;
68886;SDS011;55925;51.764;6.402;2023-11-22T13:30:08;6.25;;;3.15;;
68886;SDS011;55925;51.764;6.402;2023-11-22T13:32:34;7.20;;;3.50;;
68886;SDS011;55925;51.764;6.402;2023-11-22T13:35:00;6.68;;;3.95;;
68886;SDS011;55925;51.764;6.402;2023-11-22T13:37:30;9.35;;;3.42;;
68886;SDS011;55925;51.764;6.402;2023-11-22T13:39:56;9.40;;;3.50;;
68886;SDS011;55925;51.764;6.402;2023-11-22T13:42:22;7.65;;;3.30;;
68886;SDS011;55925;51.764;6.402;2023-11-22T13:44:48;6.72;;;3.40;;
68886;SDS011;55925;51.764;6.402;2023-11-22T13:47:15;9.10;;;3.80;;
68886;SDS011;55925;51.764;6.402;2023-11-22T13:49:41;9.98;;;3.60;;
68886;SDS011;55925;51.764;6.402;2023-11-22T13:52:08;7.68;;;3.75;;
68886;SDS011;55925;51.764;6.402;2023-11-22T13:54:34;6.85;;;3.40;;
68886;SDS011;55925;51.764;6.402;2023-11-22T13:57:04;8.30;;;4.28;;
68886;SDS011;55925;51.764;6.402;2023-11-22T13:59:30;8.07;;;3.67;;
68886;SDS011;55925;51.764;6.402;2023-11-22T14:01:56;8.32;;;4.00;;
68886;SDS011;55925;51.764;6.402;2023-11-22T14:04:22;12.02;;;5.80;;
68886;SDS011;55925;51.764;6.402;2023-11-22T14:06:48;9.60;;;4.32;;
68886;SDS011;55925;51.764;6.402;2023-11-22T14:09:15;9.60;;;4.10;;
68886;SDS011;55925;51.764;6.402;2023-11-22T14:11:41;9.30;;;4.30;;
68886;SDS011;55925;51.764;6.402;2023-11-22T14:14:07;12.52;;;5.30;;
68886;SDS011;55925;51.764;6.402;2023-11-22T14:16:34;12.90;;;5.30;;
68886;SDS011;55925;51.764;6.402;2023-11-22T14:19:03;13.30;;;4.53;;
68886;SDS011;55925;51.764;6.402;2023-11-22T14:21:30;14.95;;;5.57;;
68886;SDS011;55925;51.764;6.402;2023-11-22T14:23:57;15.52;;;6.75;;
68886;SDS011;55925;51.764;6.402;2023-11-22T14:26:24;13.57;;;6.18;;
68886;SDS011;55925;51.764;6.402;2023-11-22T14:28:51;13.20;;;5.72;;
68886;SDS011;55925;51.764;6.402;2023-11-22T14:31:17;15.63;;;6.45;;
68886;SDS011;55925;51.764;6.402;2023-11-22T14:33:43;13.52;;;5.72;;
68886;SDS011;55925;51.764;6.402;2023-11-22T14:36:09;13.60;;;5.60;;